Time;durP1;ratioP1;P1;durP2;ratioP2;P2;SDS_P1;SDS_P2;PMS_P1;PMS_P2;Temp;Humidity;BMP_temperature;BMP_pressure;BME280_temperature;BME280_humidity;BME280_pressure;Samples;Min_cycle;Max_cycle;Signal;HPM_P1;HPM_P2
2022/05/21 00:01:45;;;;;;;13.05;8.07;;;;;;;12.34;74.77;101880.72;5079429;28;20024;-85
2022/05/21 00:04:10;;;;;;;12.52;8.45;;;;;;;12.33;74.86;101883.41;5079090;28;20036;-84
2022/05/21 00:06:36;;;;;;;14.32;8.52;;;;;;;12.36;74.60;101893.94;5080155;28;20123;-85
2022/05/21 00:09:01;;;;;;;14.13;8.15;;;;;;;12.31;75.14;101883.47;5074855;28;20517;-84
2022/05/21 00:11:27;;;;;;;10.57;6.35;;;;;;;12.28;74.92;101882.69;5062694;28;20502;-84
2022/05/21 00:13:55;;;;;;;11.05;6.78;;;;;;;12.31;75.01;101886.13;5077769;28;20028;-84
2022/05/21 00:16:20;;;;;;;8.93;6.63;;;;;;;12.38;75.01;101894.75;5071098;28;20020;-84
2022/05/21 00:18:46;;;;;;;11.23;6.80;;;;;;;12.36;74.78;101897.47;5075727;28;20040;-84
2022/05/21 00:21:12;;;;;;;7.75;5.88;;;;;;;12.39;74.75;101897.34;5080148;28;20028;-84
2022/05/21 00:23:37;;;;;;;8.85;6.10;;;;;;;12.38;74.75;101889.44;5080260;28;20577;-85
2022/05/21 00:26:07;;;;;;;10.70;6.43;;;;;;;12.40;74.75;101893.81;5075895;28;20107;-85
2022/05/21 00:28:34;;;;;;;9.27;6.13;;;;;;;12.43;74.48;101892.81;5070479;28;20475;-85
2022/05/21 00:31:01;;;;;;;12.63;5.88;;;;;;;12.38;75.38;101894.75;5057751;28;20024;-85
2022/05/21 00:33:27;;;;;;;11.65;6.32;;;;;;;12.34;74.80;101898.41;5059655;28;20041;-84
2022/05/21 00:35:53;;;;;;;10.35;5.68;;;;;;;12.32;74.65;101898.47;5078520;28;20047;-84
2022/05/21 00:38:19;;;;;;;9.88;5.78;;;;;;;12.29;74.55;101898.53;5059142;28;20792;-85
2022/05/21 00:40:46;;;;;;;8.75;6.10;;;;;;;12.25;74.58;101899.56;5063315;28;20028;-84
2022/05/21 00:43:39;;;;;;;7.57;5.57;;;;;;;12.42;74.55;101896.41;5059011;28;20023;-85
2022/05/21 00:46:09;;;;;;;9.75;5.03;;;;;;;12.44;74.38;101890.09;5062286;28;20057;-84
2022/05/21 00:48:35;;;;;;;9.13;4.78;;;;;;;12.51;74.01;101891.66;5073875;28;20021;-84
2022/05/21 00:51:01;;;;;;;7.53;5.05;;;;;;;12.64;74.00;101902.78;5068073;28;20491;-84
2022/05/21 00:53:28;;;;;;;7.35;4.50;;;;;;;12.67;73.37;101896.47;5084113;28;20028;-85
2022/05/21 00:55:54;;;;;;;8.82;5.32;;;;;;;12.70;74.26;101905.22;5081993;28;20089;-84
2022/05/21 01:01:11;;;;;;;6.65;4.47;;;;;;;12.75;74.20;101905.94;5076940;28;20061;-85
2022/05/21 01:03:36;;;;;;;9.38;5.13;;;;;;;12.73;73.51;101907.78;5082170;28;20024;-84
2022/05/21 01:06:03;;;;;;;11.95;4.22;;;;;;;12.74;73.59;101901.56;5073943;28;20028;-85
2022/05/21 01:08:28;;;;;;;5.18;4.30;;;;;;;12.70;73.49;101897.25;5079001;28;20035;-84
2022/05/21 01:11:00;;;;;;;8.35;4.13;;;;;;;12.75;73.57;101910.38;5079107;28;20199;-85
2022/05/21 01:13:32;;;;;;;7.80;4.03;;;;;;;12.85;72.88;101906.50;5078620;28;20062;-84
2022/05/21 01:15:58;;;;;;;9.40;4.68;;;;;;;12.77;73.27;101901.44;5079829;28;20043;-84
2022/05/21 01:18:23;;;;;;;13.00;4.32;;;;;;;12.76;73.21;101890.88;5078292;28;20043;-84
2022/05/21 01:20:54;;;;;;;6.50;2.90;;;;;;;12.77;73.49;101896.13;5081276;28;20046;-84
2022/05/21 01:23:19;;;;;;;7.53;3.97;;;;;;;12.80;73.90;101894.31;5083006;28;20120;-84
2022/05/21 01:25:46;;;;;;;8.68;4.05;;;;;;;12.85;73.29;101895.03;5064192;28;20032;-84
2022/05/21 01:28:14;;;;;;;6.95;3.78;;;;;;;12.84;73.58;101898.59;5057233;28;20535;-84
2022/05/21 01:30:46;;;;;;;7.10;3.60;;;;;;;12.84;73.55;101890.66;5067305;28;20171;-85
2022/05/21 01:33:14;;;;;;;7.63;4.13;;;;;;;12.80;73.38;101887.22;5081957;28;20042;-85
2022/05/21 01:35:41;;;;;;;10.25;3.50;;;;;;;12.83;73.28;101889.78;5078001;28;20042;-84
2022/05/21 01:38:08;;;;;;;10.27;3.65;;;;;;;12.80;73.34;101891.66;5078345;28;20036;-84
2022/05/21 01:40:34;;;;;;;8.60;3.78;;;;;;;12.80;73.48;101894.31;5080626;28;20032;-84
2022/05/21 01:45:44;;;;;;;5.20;3.10;;;;;;;12.88;73.56;101894.94;5077268;28;20549;-84
2022/05/21 01:48:10;;;;;;;5.43;3.38;;;;;;;12.82;73.53;101895.97;5076576;28;20028;-84
2022/05/21 01:50:38;;;;;;;5.88;3.58;;;;;;;12.85;73.19;101885.28;5078270;28;20496;-84
2022/05/21 01:53:04;;;;;;;10.23;3.80;;;;;;;12.91;73.62;101884.19;5060393;28;20032;-84
2022/05/21 01:55:30;;;;;;;8.80;3.75;;;;;;;12.95;73.18;101891.16;5080803;28;20032;-84
2022/05/21 01:57:55;;;;;;;6.15;3.97;;;;;;;12.93;73.17;101890.34;5077754;28;20475;-85
2022/05/21 02:00:21;;;;;;;7.07;3.58;;;;;;;12.97;73.52;101891.97;5078258;28;20494;-85
2022/05/21 02:02:46;;;;;;;9.45;4.45;;;;;;;12.96;73.42;101896.41;5078462;28;20117;-84
2022/05/21 02:05:12;;;;;;;8.63;3.85;;;;;;;12.96;73.38;101888.47;5071669;28;20463;-86
2022/05/21 02:07:38;;;;;;;6.97;3.92;;;;;;;12.96;73.40;101882.25;5071473;28;20036;-85
2022/05/21 02:10:05;;;;;;;8.60;4.13;;;;;;;12.95;73.59;101885.84;5075059;28;20036;-85
2022/05/21 02:12:31;;;;;;;8.13;4.45;;;;;;;12.97;73.44;101884.00;5078460;28;20035;-85
2022/05/21 02:14:56;;;;;;;12.73;4.78;;;;;;;12.99;72.94;101893.66;5058873;28;20407;-85
2022/05/21 02:17:22;;;;;;;11.98;4.63;;;;;;;13.02;73.39;101898.88;5078302;28;20028;-85
2022/05/21 02:19:48;;;;;;;8.70;4.53;;;;;;;13.04;73.45;101885.53;5076522;28;20035;-85
2022/05/21 02:22:14;;;;;;;8.52;4.65;;;;;;;12.98;73.02;101891.91;5080043;28;20031;-85
2022/05/21 02:24:39;;;;;;;11.73;4.53;;;;;;;13.03;73.08;101905.03;5056027;28;20055;-85
2022/05/21 02:27:11;;;;;;;8.70;4.20;;;;;;;13.00;73.47;101897.16;5075380;28;21852;-85
2022/05/21 02:29:38;;;;;;;9.77;4.45;;;;;;;12.99;73.23;101898.97;5056593;28;20126;-85
2022/05/21 02:32:04;;;;;;;9.63;4.45;;;;;;;13.01;73.34;101897.13;5075844;28;20035;-85
2022/05/21 02:34:30;;;;;;;6.95;4.20;;;;;;;13.03;73.29;101902.38;5076271;28;20164;-85
2022/05/21 02:39:39;;;;;;;9.27;4.10;;;;;;;13.11;72.87;101895.03;5080016;28;20030;-85
2022/05/21 02:42:42;;;;;;;9.18;4.32;;;;;;;13.09;72.69;101885.38;5081313;28;20019;-85
2022/05/21 02:44:50;;;;;;;10.32;3.78;;;;;;;13.13;73.14;101887.88;5073483;28;20055;-85
2022/05/21 02:47:16;;;;;;;9.68;4.70;;;;;;;13.12;73.18;101890.59;5072646;28;20044;-85
2022/05/21 02:49:41;;;;;;;8.57;3.75;;;;;;;13.11;73.65;101886.22;5061561;28;20072;-85
2022/05/21 02:52:06;;;;;;;9.88;4.50;;;;;;;13.05;73.17;101887.25;5063893;28;20032;-86
2022/05/21 02:54:32;;;;;;;11.68;4.03;;;;;;;12.97;73.30;101886.66;5063030;28;20127;-85
2022/05/21 02:56:57;;;;;;;8.63;4.03;;;;;;;13.00;73.78;101898.03;5077334;28;20024;-85
2022/05/21 02:59:22;;;;;;;8.80;3.97;;;;;;;13.01;73.42;101896.28;5074335;28;20024;-85
2022/05/21 03:01:47;;;;;;;7.53;4.40;;;;;;;13.04;73.58;101893.50;5076002;28;20443;-85
2022/05/21 03:04:14;;;;;;;9.20;4.15;;;;;;;13.06;73.42;101893.47;5079526;28;20428;-85
2022/05/21 03:06:39;;;;;;;7.47;4.82;;;;;;;13.11;73.24;101904.78;5058817;28;20036;-85
2022/05/21 03:11:49;;;;;;;13.13;4.50;;;;;;;13.10;73.55;101890.63;5074955;28;20510;-85
2022/05/21 03:14:15;;;;;;;10.00;4.72;;;;;;;12.99;73.79;101892.78;5076565;28;20093;-85
2022/05/21 03:16:40;;;;;;;6.90;3.97;;;;;;;12.96;73.71;101893.78;5060316;28;20032;-85
2022/05/21 03:19:05;;;;;;;8.20;4.25;;;;;;;12.99;73.50;101892.78;5071468;28;20111;-85
2022/05/21 03:21:30;;;;;;;11.55;5.65;;;;;;;12.95;73.50;101886.69;5074131;28;20543;-85
2022/05/21 03:23:56;;;;;;;10.05;5.28;;;;;;;12.95;73.88;101889.34;5058065;28;20036;-85
2022/05/21 03:26:22;;;;;;;10.15;4.95;;;;;;;12.93;74.06;101885.03;5075942;28;20366;-85
2022/05/21 03:28:47;;;;;;;9.32;4.57;;;;;;;13.02;73.35;101893.56;5073075;28;20096;-85
2022/05/21 03:31:12;;;;;;;8.15;4.47;;;;;;;12.96;73.93;101882.25;5057042;28;20491;-85
2022/05/21 03:33:38;;;;;;;10.77;4.35;;;;;;;12.97;73.72;101884.88;5074784;28;20538;-86
2022/05/21 03:36:04;;;;;;;10.45;4.93;;;;;;;13.00;73.91;101895.38;5073710;28;20481;-86
2022/05/21 03:38:30;;;;;;;12.73;5.13;;;;;;;12.99;73.99;101892.78;5060148;28;20020;-85
2022/05/21 03:40:55;;;;;;;12.55;4.80;;;;;;;13.04;73.84;101896.16;5076488;28;20374;-85
2022/05/21 03:43:21;;;;;;;13.50;5.75;;;;;;;13.11;73.80;101899.47;5057785;28;20424;-85
2022/05/21 03:45:46;;;;;;;12.38;5.55;;;;;;;13.14;73.32;101904.66;5056836;28;20056;-85
2022/05/21 03:48:12;;;;;;;11.60;5.43;;;;;;;13.07;73.74;101890.75;5075593;28;20043;-85
2022/05/21 03:50:37;;;;;;;13.20;6.47;;;;;;;13.10;73.71;101905.69;5057800;28;20028;-85
2022/05/21 03:53:03;;;;;;;11.27;5.05;;;;;;;13.13;73.68;101897.63;5076337;28;20028;-85
2022/05/21 03:55:30;;;;;;;14.60;6.40;;;;;;;13.12;73.36;101901.22;5057951;28;20020;-85
2022/05/21 03:57:56;;;;;;;12.05;6.05;;;;;;;13.11;73.56;101910.97;5073887;28;20054;-85
2022/05/21 04:00:21;;;;;;;13.88;5.63;;;;;;;13.15;73.63;101914.38;5057101;28;20035;-85
2022/05/21 04:02:47;;;;;;;10.07;5.50;;;;;;;13.09;74.09;101910.13;5054258;28;20027;-86
2022/05/21 04:05:14;;;;;;;16.23;5.75;;;;;;;13.10;74.01;101914.50;5076842;28;20419;-85
2022/05/21 04:07:40;;;;;;;14.30;5.43;;;;;;;13.11;74.08;101918.94;5073746;28;20032;-85
2022/05/21 04:10:07;;;;;;;10.60;5.18;;;;;;;13.10;73.63;101911.84;5075408;28;20068;-86
2022/05/21 04:12:32;;;;;;;14.82;5.78;;;;;;;13.10;74.09;101924.28;5079019;28;20043;-85
2022/05/21 04:14:58;;;;;;;11.82;5.10;;;;;;;13.08;73.85;101920.81;5055876;28;20383;-86
2022/05/21 04:17:23;;;;;;;10.82;4.75;;;;;;;13.15;73.94;101927.63;5077416;28;20032;-85
2022/05/21 04:19:49;;;;;;;11.38;4.95;;;;;;;13.14;73.75;101921.47;5054566;28;20545;-85
2022/05/21 04:22:14;;;;;;;8.25;4.53;;;;;;;13.17;73.87;101910.75;5075652;28;20063;-86
2022/05/21 04:24:40;;;;;;;11.80;5.72;;;;;;;13.19;73.53;101921.31;5077316;28;20038;-86
2022/05/21 04:27:07;;;;;;;10.48;5.05;;;;;;;13.21;73.91;101925.66;5074666;28;20032;-85
2022/05/21 04:29:33;;;;;;;15.80;5.95;;;;;;;13.15;73.82;101925.88;5074311;28;20071;-85
2022/05/21 04:31:59;;;;;;;16.02;5.85;;;;;;;13.17;73.68;101929.34;5072879;28;20360;-86
2022/05/21 04:34:24;;;;;;;12.88;5.22;;;;;;;13.22;73.86;101940.72;5079385;28;20035;-85
2022/05/21 04:36:49;;;;;;;14.13;5.82;;;;;;;13.24;74.34;101940.63;5074254;28;20113;-86
2022/05/21 04:39:14;;;;;;;13.10;6.13;;;;;;;13.17;73.98;101937.31;5061111;28;20059;-85
2022/05/21 04:41:40;;;;;;;13.95;5.45;;;;;;;13.25;74.04;101948.56;5061390;28;20026;-85
2022/05/21 04:44:07;;;;;;;10.95;5.70;;;;;;;13.24;73.60;101940.63;5059620;28;20028;-85
2022/05/21 04:46:33;;;;;;;13.27;5.20;;;;;;;13.32;73.33;101940.41;5060181;28;20060;-86
2022/05/21 04:48:58;;;;;;;10.35;4.75;;;;;;;13.28;74.10;101953.78;5052850;28;20426;-85
2022/05/21 04:51:24;;;;;;;11.30;5.60;;;;;;;13.25;73.84;101945.91;5075773;28;20028;-85
2022/05/21 04:53:49;;;;;;;14.75;6.40;;;;;;;13.27;73.78;101943.22;5074566;28;20028;-85
2022/05/21 04:56:14;;;;;;;11.73;5.50;;;;;;;13.22;73.34;101937.19;5070852;28;20033;-86
2022/05/21 04:58:40;;;;;;;15.25;6.50;;;;;;;13.21;73.87;101954.88;5077425;28;20109;-85
2022/05/21 05:01:05;;;;;;;18.00;6.40;;;;;;;13.24;73.64;101944.19;5074032;28;20067;-86
2022/05/21 05:03:31;;;;;;;14.95;6.85;;;;;;;13.25;73.67;101955.69;5076345;28;20021;-85
2022/05/21 05:05:57;;;;;;;12.65;6.05;;;;;;;13.12;74.27;101947.22;5077553;28;20029;-85
2022/05/21 05:08:23;;;;;;;15.52;6.18;;;;;;;13.16;73.94;101955.94;5077021;28;20042;-85
2022/05/21 05:10:49;;;;;;;16.13;7.50;;;;;;;13.16;74.28;101954.16;5063172;28;20058;-85
2022/05/21 05:13:15;;;;;;;14.38;8.60;;;;;;;13.24;74.36;101956.56;5055205;28;20028;-86
2022/05/21 05:15:44;;;;;;;19.52;7.97;;;;;;;13.26;74.07;101949.44;5056686;28;20027;-85
2022/05/21 05:18:12;;;;;;;20.42;8.93;;;;;;;13.38;73.71;101964.09;5076438;28;20028;-85
2022/05/21 05:20:38;;;;;;;21.65;8.98;;;;;;;13.46;73.84;101962.03;5080729;28;20084;-86
2022/05/21 05:23:05;;;;;;;18.20;9.90;;;;;;;13.37;73.60;101960.56;5080032;28;20436;-85
2022/05/21 05:25:30;;;;;;;16.98;7.65;;;;;;;13.47;73.77;101971.75;5064647;28;20021;-85
2022/05/21 05:27:56;;;;;;;19.33;9.43;;;;;;;13.60;73.50;101973.06;5078302;28;20039;-85
2022/05/21 05:30:22;;;;;;;21.60;10.27;;;;;;;13.62;73.37;101973.91;5063380;28;20055;-85
2022/05/21 05:32:48;;;;;;;22.08;9.00;;;;;;;13.68;72.68;101981.63;5077193;28;20588;-85
2022/05/21 05:35:15;;;;;;;20.17;9.80;;;;;;;13.75;73.27;101984.94;5064457;28;20699;-85
2022/05/21 05:37:40;;;;;;;21.02;9.90;;;;;;;13.68;72.81;101978.97;5064129;28;20530;-85
2022/05/21 05:40:09;;;;;;;21.17;8.90;;;;;;;13.69;73.08;101994.00;5080010;28;20027;-85
2022/05/21 05:42:38;;;;;;;19.38;8.90;;;;;;;13.73;73.38;101992.09;5074783;28;20036;-85
2022/05/21 05:45:05;;;;;;;15.20;9.65;;;;;;;13.76;73.10;101992.03;5081156;28;20420;-86
2022/05/21 05:47:33;;;;;;;21.95;10.27;;;;;;;13.89;72.97;101990.63;5081116;28;20134;-85
2022/05/21 05:49:59;;;;;;;18.77;10.38;;;;;;;14.01;72.35;101982.22;5081505;28;20031;-85
2022/05/21 05:52:24;;;;;;;20.75;10.50;;;;;;;14.09;72.16;101989.94;5065529;28;20664;-85
2022/05/21 05:54:49;;;;;;;18.27;10.15;;;;;;;14.03;71.93;101985.72;5079493;28;20059;-85
2022/05/21 05:57:15;;;;;;;20.45;10.50;;;;;;;14.15;71.54;101992.38;5075883;28;20026;-85
2022/05/21 05:59:50;;;;;;;22.60;10.80;;;;;;;14.22;71.36;101988.56;5083815;28;20471;-85
2022/05/21 06:05:14;;;;;;;23.52;10.20;;;;;;;14.31;71.38;101984.66;5080961;28;20043;-85
2022/05/21 06:07:48;;;;;;;18.13;8.90;;;;;;;14.32;72.00;101993.56;5076164;28;20154;-85
2022/05/21 06:10:17;;;;;;;25.00;10.73;;;;;;;14.24;72.09;101991.16;5060570;28;20551;-86
2022/05/21 06:12:43;;;;;;;20.88;10.63;;;;;;;14.25;71.87;102001.75;5077370;28;20040;-85
2022/05/21 06:15:10;;;;;;;27.05;11.05;;;;;;;14.29;71.82;102002.50;5059843;28;20076;-86
2022/05/21 06:17:36;;;;;;;22.67;10.23;;;;;;;14.21;71.63;102000.09;5061181;28;20486;-85
2022/05/21 06:20:02;;;;;;;19.85;11.40;;;;;;;14.20;71.57;101989.53;5074949;28;20069;-85
2022/05/21 06:22:27;;;;;;;27.02;12.55;;;;;;;14.27;71.50;102013.22;5058630;28;20031;-85
2022/05/21 06:24:53;;;;;;;18.85;12.10;;;;;;;14.40;70.63;102005.63;5074111;28;20027;-86
2022/05/21 06:27:18;;;;;;;23.00;11.98;;;;;;;14.52;70.71;102009.66;5075555;28;20110;-85
2022/05/21 06:29:45;;;;;;;19.13;11.10;;;;;;;14.60;70.37;102014.69;5075073;28;20035;-85
2022/05/21 06:32:10;;;;;;;23.00;12.18;;;;;;;14.75;70.17;102011.44;5083008;28;20466;-85
2022/05/21 06:34:36;;;;;;;24.60;11.98;;;;;;;14.93;69.14;102015.19;5057714;28;20034;-86
2022/05/21 06:37:07;;;;;;;23.95;11.85;;;;;;;15.01;69.26;102013.94;5074879;28;20020;-87
2022/05/21 06:39:34;;;;;;;26.77;12.55;;;;;;;15.08;68.52;102019.03;5075830;28;20417;-87
2022/05/21 06:42:00;;;;;;;22.10;12.00;;;;;;;15.17;68.35;102026.66;5057984;28;20024;-87
2022/05/21 06:44:25;;;;;;;20.10;11.13;;;;;;;15.25;68.46;102017.41;5058737;28;20035;-86
2022/05/21 06:46:51;;;;;;;24.30;11.25;;;;;;;15.27;68.06;102026.19;5073681;28;21369;-86
2022/05/21 06:49:17;;;;;;;24.48;11.63;;;;;;;15.38;68.10;102016.88;5073392;28;20024;-87
2022/05/21 06:51:43;;;;;;;26.67;11.63;;;;;;;15.44;67.74;102024.66;5077022;28;20455;-86
2022/05/21 06:54:08;;;;;;;26.65;10.75;;;;;;;15.53;67.30;102021.59;5057890;28;20040;-86
2022/05/21 06:56:33;;;;;;;21.70;11.23;;;;;;;15.55;66.99;102025.06;5056676;28;20040;-86
2022/05/21 06:58:58;;;;;;;24.45;10.35;;;;;;;15.54;67.07;102023.34;5061376;28;20020;-87
2022/05/21 07:01:24;;;;;;;25.27;11.18;;;;;;;15.64;66.08;102023.84;5075214;28;20027;-86
2022/05/21 07:03:49;;;;;;;22.35;10.95;;;;;;;15.70;66.76;102039.56;5076162;28;20376;-87
2022/05/21 07:08:58;;;;;;;21.85;10.43;;;;;;;15.71;66.79;102027.97;5074085;28;20491;-87
2022/05/21 07:11:24;;;;;;;18.23;10.93;;;;;;;15.73;65.92;102032.31;5059042;28;20027;-86
2022/05/21 07:13:49;;;;;;;21.10;10.57;;;;;;;15.80;66.22;102040.91;5058523;28;20236;-87
2022/05/21 07:16:14;;;;;;;22.65;10.82;;;;;;;15.74;66.10;102028.72;5061540;28;20023;-86
2022/05/21 07:18:40;;;;;;;18.08;7.88;;;;;;;15.73;65.58;102034.97;5073049;28;20036;-86
2022/05/21 07:21:05;;;;;;;19.00;10.98;;;;;;;15.77;66.63;102049.91;5056295;28;20406;-87
2022/05/21 07:23:31;;;;;;;27.92;11.82;;;;;;;15.85;66.53;102051.38;5057154;28;20097;-87
2022/05/21 07:25:56;;;;;;;21.63;12.57;;;;;;;15.82;66.49;102061.25;5057564;28;20485;-86
2022/05/21 07:28:22;;;;;;;24.20;10.70;;;;;;;15.78;66.00;102051.66;5057940;28;20049;-87
2022/05/21 07:30:47;;;;;;;22.60;12.52;;;;;;;15.93;65.48;102058.13;5056700;28;20036;-86
2022/05/21 07:33:18;;;;;;;25.42;11.80;;;;;;;16.03;64.88;102061.25;5074664;28;20466;-86
2022/05/21 07:35:44;;;;;;;22.20;11.48;;;;;;;16.21;65.18;102052.44;5075203;28;20403;-86
2022/05/21 07:38:11;;;;;;;23.98;11.32;;;;;;;16.59;63.71;102052.50;5074989;28;20028;-87
2022/05/21 07:40:38;;;;;;;25.60;10.50;;;;;;;16.73;63.06;102054.56;5059146;28;20028;-87
2022/05/21 07:43:18;;;;;;;30.05;11.23;;;;;;;16.59;63.25;102057.84;5074204;28;20016;-86
2022/05/21 07:45:44;;;;;;;20.40;10.30;;;;;;;16.69;62.64;102048.47;5074461;28;20583;-86
2022/05/21 07:48:12;;;;;;;24.60;10.50;;;;;;;16.74;61.72;102057.19;5054419;28;20230;-86
2022/05/21 07:50:40;;;;;;;26.27;9.90;;;;;;;16.95;62.71;102066.00;5075042;28;20516;-87
2022/05/21 07:53:10;;;;;;;20.48;10.13;;;;;;;17.58;61.59;102057.59;5056164;28;20016;-87
2022/05/21 07:55:36;;;;;;;23.50;10.48;;;;;;;18.24;59.39;102065.81;5059358;28;20023;-87
2022/05/21 07:58:01;;;;;;;19.08;10.65;;;;;;;18.61;56.85;102069.19;5074736;28;20192;-86
2022/05/21 08:00:27;;;;;;;18.38;10.20;;;;;;;19.01;56.05;102065.19;5066015;28;20070;-87
2022/05/21 08:02:52;;;;;;;19.55;10.18;;;;;;;19.25;56.04;102062.06;5083305;28;20035;-86
2022/05/21 08:05:17;;;;;;;24.67;9.98;;;;;;;19.55;54.67;102068.38;5076323;28;20108;-86
2022/05/21 08:07:49;;;;;;;16.88;9.25;;;;;;;18.97;54.70;102071.66;5063054;28;20359;-86
2022/05/21 08:10:14;;;;;;;23.45;9.25;;;;;;;18.23;56.37;102071.22;5079947;28;20032;-86
2022/05/21 08:12:40;;;;;;;19.33;9.93;;;;;;;17.78;58.15;102078.88;5063355;28;20036;-87
2022/05/21 08:15:05;;;;;;;23.58;10.10;;;;;;;17.69;58.20;102073.97;5077225;28;20029;-86
2022/05/21 08:17:31;;;;;;;19.02;10.13;;;;;;;17.57;59.56;102087.94;5072108;28;20047;-85
2022/05/21 08:19:56;;;;;;;15.45;8.35;;;;;;;17.38;58.94;102087.13;5061085;28;20054;-86
2022/05/21 08:27:49;;;;;;;19.30;8.48;;;;;;;17.91;58.31;102080.94;5071063;28;20157;-87
2022/05/21 08:30:15;;;;;;;15.45;8.23;;;;;;;18.34;56.43;102083.09;5072384;28;20191;-87
2022/05/21 08:32:40;;;;;;;17.95;6.93;;;;;;;18.41;55.94;102085.44;5075631;28;20031;-87
2022/05/21 08:35:06;;;;;;;16.52;6.78;;;;;;;18.24;55.90;102073.84;5056011;28;21396;-86
2022/05/21 08:37:33;;;;;;;19.40;7.28;;;;;;;18.27;55.94;102080.81;5073341;28;20032;-86
2022/05/21 08:39:58;;;;;;;17.58;7.65;;;;;;;18.30;55.90;102088.72;5071713;28;20487;-86
2022/05/21 08:42:40;;;;;;;20.88;8.77;;;;;;;18.34;56.83;102090.28;5056444;28;20232;-86
2022/05/21 08:45:22;;;;;;;17.08;7.60;;;;;;;18.42;56.48;102089.84;5057777;28;20709;-86
2022/05/21 08:48:02;;;;;;;15.75;7.25;;;;;;;18.36;55.89;102094.59;5051241;28;20915;-86
2022/05/21 08:50:32;;;;;;;15.10;7.15;;;;;;;18.36;54.79;102097.25;5080225;28;20035;-86
2022/05/21 08:53:05;;;;;;;14.82;6.97;;;;;;;18.18;55.97;102090.19;5082150;28;20124;-86
2022/05/21 08:55:35;;;;;;;17.02;7.97;;;;;;;18.44;55.20;102087.97;5060927;28;20038;-86
2022/05/21 08:58:08;;;;;;;17.63;7.38;;;;;;;19.13;53.48;102082.41;5080147;28;20503;-87
2022/05/21 09:00:37;;;;;;;16.52;6.40;;;;;;;19.26;52.76;102078.09;5075868;28;20081;-86
2022/05/21 09:03:17;;;;;;;13.93;6.80;;;;;;;19.21;53.71;102071.25;5064841;28;20078;-87
2022/05/21 09:05:49;;;;;;;17.52;7.97;;;;;;;19.66;51.95;102075.81;5074999;28;20024;-86
2022/05/21 09:08:20;;;;;;;15.63;8.30;;;;;;;19.78;51.83;102075.09;5078243;28;20035;-87
2022/05/21 09:10:56;;;;;;;17.27;9.05;;;;;;;20.34;52.10;102070.81;5063244;28;20260;-87
2022/05/21 09:13:39;;;;;;;12.07;8.30;;;;;;;20.04;51.58;102067.28;5065613;28;20510;-86
2022/05/21 09:18:49;;;;;;;16.02;8.60;;;;;;;20.72;49.47;102072.94;5081915;28;20047;-87
2022/05/21 09:21:23;;;;;;;17.30;8.32;;;;;;;21.12;49.93;102063.19;5065361;28;20475;-87
2022/05/21 09:23:53;;;;;;;15.02;7.18;;;;;;;21.03;49.34;102065.59;5057252;28;20067;-87
2022/05/21 09:26:28;;;;;;;9.98;5.45;;;;;;;21.03;47.95;102062.91;5081606;28;20032;-87
2022/05/21 09:29:12;;;;;;;11.80;5.63;;;;;;;21.35;48.22;102061.69;5081694;28;20111;-87
2022/05/21 09:31:38;;;;;;;14.85;6.88;;;;;;;21.32;45.36;102061.06;5076345;28;20556;-87
2022/05/21 09:34:32;;;;;;;13.73;7.13;;;;;;;21.48;48.51;102060.88;5074220;28;20112;-88
2022/05/21 09:36:59;;;;;;;17.75;7.82;;;;;;;21.27;46.83;102055.09;5055905;28;20020;-86
2022/05/21 09:39:32;;;;;;;13.32;7.57;;;;;;;20.82;47.84;102075.91;5061195;28;20031;-86
2022/05/21 09:45:22;;;;;;;13.15;6.38;;;;;;;19.76;51.52;102082.34;5078275;28;20089;-87
2022/05/21 09:47:49;;;;;;;16.65;7.28;;;;;;;19.50;51.07;102081.19;5058676;28;20170;-87
2022/05/21 09:50:23;;;;;;;16.27;6.70;;;;;;;19.57;50.81;102084.34;5062085;28;20115;-87
2022/05/21 09:52:49;;;;;;;17.70;8.10;;;;;;;20.11;51.27;102077.56;5080346;28;21303;-88
2022/05/21 09:55:29;;;;;;;13.27;7.65;;;;;;;20.76;48.34;102079.00;5061461;28;20028;-87
2022/05/21 09:58:08;;;;;;;12.07;7.18;;;;;;;21.03;47.80;102074.56;5077873;28;20161;-88
2022/05/21 10:00:35;;;;;;;14.35;7.50;;;;;;;21.49;46.81;102089.50;5061117;28;20117;-87
2022/05/21 10:03:03;;;;;;;13.30;6.30;;;;;;;21.31;45.79;102075.44;5075610;28;20282;-86
2022/05/21 10:05:32;;;;;;;11.68;5.95;;;;;;;20.84;47.14;102087.41;5077763;28;20059;-87
2022/05/21 10:10:58;;;;;;;8.80;5.50;;;;;;;19.72;50.58;102088.00;5078423;28;20411;-86
2022/05/21 10:13:39;;;;;;;11.50;5.05;;;;;;;19.45;49.93;102099.38;5059553;28;20027;-87
2022/05/21 10:16:24;;;;;;;12.10;5.10;;;;;;;19.29;50.50;102095.81;5077078;28;20036;-86
2022/05/21 10:19:20;;;;;;;12.52;5.88;;;;;;;19.37;50.57;102097.09;5077224;28;20436;-87
2022/05/21 10:22:00;;;;;;;14.38;5.60;;;;;;;20.11;50.05;102092.81;5078109;28;20143;-87
2022/05/21 10:24:38;;;;;;;13.10;6.15;;;;;;;20.39;49.83;102082.13;5059926;28;20035;-87
2022/05/21 10:27:26;;;;;;;14.95;6.22;;;;;;;20.40;50.72;102080.31;5060926;28;20043;-86
2022/05/21 10:30:19;;;;;;;14.65;5.35;;;;;;;20.26;48.78;102072.22;5058841;28;20066;-86
2022/05/21 10:32:44;;;;;;;9.05;4.22;;;;;;;20.04;48.26;102086.09;5061853;28;20115;-87
2022/05/21 10:35:39;;;;;;;12.17;4.90;;;;;;;19.88;49.21;102083.47;5057589;28;20050;-86
2022/05/21 10:38:20;;;;;;;9.43;4.18;;;;;;;19.61;49.62;102088.63;5076042;28;20270;-87
2022/05/21 10:41:01;;;;;;;8.75;4.95;;;;;;;19.72;50.89;102091.53;5074541;28;20434;-87
2022/05/21 10:43:48;;;;;;;14.95;5.93;;;;;;;19.72;50.81;102099.59;5064586;28;20077;-87
2022/05/21 10:46:38;;;;;;;14.52;7.28;;;;;;;19.64;51.31;102101.88;5057415;28;21418;-86
2022/05/21 10:49:28;;;;;;;16.63;9.05;;;;;;;19.66;51.92;102102.63;5071761;28;20028;-87
2022/05/21 10:52:36;;;;;;;21.58;9.73;;;;;;;19.91;51.62;102104.75;5067177;28;20620;-87
2022/05/21 10:55:10;;;;;;;11.82;7.70;;;;;;;20.52;50.17;102100.22;5058775;28;20161;-88
2022/05/21 10:58:00;;;;;;;12.20;6.50;;;;;;;20.96;47.88;102091.16;5075701;28;20039;-87
2022/05/21 11:00:50;;;;;;;16.77;6.70;;;;;;;20.69;48.70;102089.25;5058055;28;20024;-87
2022/05/21 11:03:49;;;;;;;15.45;6.38;;;;;;;20.52;49.20;102098.38;5060631;28;20027;-87
2022/05/21 11:06:30;;;;;;;15.00;5.82;;;;;;;20.32;50.12;102099.56;5059404;28;20088;-88
2022/05/21 11:09:04;;;;;;;9.35;5.03;;;;;;;20.22;48.59;102090.34;5058265;28;20035;-87
2022/05/21 11:11:44;;;;;;;8.27;4.85;;;;;;;20.67;47.98;102109.13;5059857;28;20499;-88
2022/05/21 11:14:37;;;;;;;8.88;4.07;;;;;;;21.48;47.50;102109.31;5060851;28;20028;-88
2022/05/21 11:17:26;;;;;;;10.52;3.90;;;;;;;21.81;46.33;102104.38;5063773;28;20082;-88
2022/05/21 11:19:59;;;;;;;12.55;4.10;;;;;;;21.78;43.97;102114.50;5074637;28;20035;-87
2022/05/21 11:22:32;;;;;;;10.15;4.50;;;;;;;21.69;45.67;102105.22;5075579;28;20475;-87
2022/05/21 11:25:12;;;;;;;8.68;4.25;;;;;;;21.57;45.74;102108.72;5074272;28;20027;-87
2022/05/21 11:27:49;;;;;;;9.60;4.78;;;;;;;21.44;44.28;102108.66;5071239;28;20594;-87
2022/05/21 11:30:18;;;;;;;12.57;4.72;;;;;;;21.02;45.69;102101.53;5071596;28;20088;-88
2022/05/21 11:38:29;;;;;;;10.38;4.93;;;;;;;21.86;45.59;102088.78;5076156;28;20063;-88
2022/05/21 11:43:58;;;;;;;9.00;4.50;;;;;;;21.94;45.04;102092.78;5072287;28;20629;-87
2022/05/21 11:46:38;;;;;;;11.23;5.18;;;;;;;21.87;45.64;102090.53;5054141;28;20044;-88
2022/05/21 11:49:28;;;;;;;10.48;3.90;;;;;;;21.50;45.55;102092.13;5071143;28;20032;-88
2022/05/21 11:52:00;;;;;;;9.45;3.55;;;;;;;21.19;43.16;102087.00;5077559;28;20039;-88
2022/05/21 11:54:47;;;;;;;7.45;3.40;;;;;;;21.47;45.15;102091.47;5070155;28;20042;-87
2022/05/21 11:57:32;;;;;;;7.57;3.25;;;;;;;21.81;43.90;102073.91;5060088;28;20270;-87
2022/05/21 11:59:59;;;;;;;7.43;3.30;;;;;;;21.98;41.56;102097.84;5055323;28;20036;-88
2022/05/21 12:02:30;;;;;;;9.32;3.40;;;;;;;21.77;42.59;102078.63;5066314;28;20054;-88
2022/05/21 12:04:59;;;;;;;9.95;3.22;;;;;;;22.02;42.52;102079.66;5072196;28;20833;-89
2022/05/21 12:07:43;;;;;;;8.95;3.13;;;;;;;22.35;41.46;102088.13;5058036;28;20032;-89